Time;durP1;ratioP1;P1;durP2;ratioP2;P2;SDS_P1;SDS_P2;PMS_P1;PMS_P2;Temp;Humidity;BMP_temperature;BMP_pressure;BME280_temperature;BME280_humidity;BME280_pressure;Samples;Min_cycle;Max_cycle;Signal;HPM_P1;HPM_P2
2022/03/07 00:07:31;;;;;;;5.05;3.40;;;;;;;;;;20911210;28;20170;-53
2022/03/07 00:17:33;;;;;;;5.60;3.15;;;;;;;;;;20910447;28;20063;-53
2022/03/07 00:27:35;;;;;;;7.38;3.70;;;;;;;;;;20910521;28;20063;-54
2022/03/07 00:37:38;;;;;;;6.55;3.50;;;;;;;;;;20922293;28;20053;-55
2022/03/07 00:47:40;;;;;;;4.43;3.72;;;;;;;;;;20924548;28;20045;-53
2022/03/07 00:57:42;;;;;;;4.20;3.70;;;;;;;;;;20925200;28;20057;-53
2022/03/07 01:07:44;;;;;;;4.60;3.85;;;;;;;;;;20923260;28;20045;-53
2022/03/07 01:17:46;;;;;;;4.65;3.90;;;;;;;;;;20923230;28;20057;-52
2022/03/07 01:27:47;;;;;;;4.75;4.13;;;;;;;;;;20921606;28;20049;-51
2022/03/07 01:37:49;;;;;;;6.57;4.72;;;;;;;;;;20919244;28;20056;-51
2022/03/07 01:47:51;;;;;;;7.00;5.13;;;;;;;;;;20919568;28;20048;-52
2022/03/07 01:57:52;;;;;;;5.20;4.70;;;;;;;;;;20919424;28;20048;-52
2022/03/07 02:07:55;;;;;;;4.95;4.28;;;;;;;;;;20919127;28;20481;-55
2022/03/07 02:17:58;;;;;;;5.40;4.30;;;;;;;;;;20918532;28;20057;-54
2022/03/07 02:28:00;;;;;;;4.43;4.03;;;;;;;;;;20917610;28;20049;-54
2022/03/07 02:38:02;;;;;;;4.32;3.63;;;;;;;;;;20916382;28;20056;-53
2022/03/07 02:48:04;;;;;;;6.07;4.40;;;;;;;;;;20915443;28;20087;-55
2022/03/07 02:58:06;;;;;;;4.97;4.47;;;;;;;;;;20912627;28;20049;-54
2022/03/07 03:08:10;;;;;;;4.30;3.50;;;;;;;;;;20915378;28;20059;-52
2022/03/07 03:18:32;;;;;;;4.10;3.40;;;;;;;;;;20912984;28;20082;-55
2022/03/07 03:28:54;;;;;;;4.82;2.67;;;;;;;;;;20913091;28;20056;-52
2022/03/07 03:39:15;;;;;;;5.32;3.80;;;;;;;;;;20912846;28;20045;-53
2022/03/07 03:49:37;;;;;;;6.32;3.78;;;;;;;;;;20911677;28;20079;-52
2022/03/07 03:59:58;;;;;;;5.50;3.22;;;;;;;;;;20911420;28;20065;-52
2022/03/07 04:10:20;;;;;;;5.57;3.95;;;;;;;;;;20921033;28;20053;-53
2022/03/07 04:20:43;;;;;;;7.47;4.40;;;;;;;;;;20925780;28;20053;-52
2022/03/07 04:31:04;;;;;;;5.93;4.28;;;;;;;;;;20927125;28;20056;-52
2022/03/07 04:41:27;;;;;;;5.70;3.78;;;;;;;;;;20925840;28;20053;-54
2022/03/07 04:51:46;;;;;;;4.90;3.60;;;;;;;;;;20924285;28;20481;-53
2022/03/07 05:02:02;;;;;;;6.38;3.28;;;;;;;;;;20923575;28;20057;-55
2022/03/07 05:12:21;;;;;;;4.18;3.55;;;;;;;;;;20923384;28;20045;-55
2022/03/07 05:22:43;;;;;;;6.25;4.28;;;;;;;;;;20921296;28;20408;-52
2022/03/07 05:32:59;;;;;;;5.03;4.10;;;;;;;;;;20922363;28;20045;-55
2022/03/07 05:43:14;;;;;;;5.22;4.28;;;;;;;;;;20920520;28;20051;-55
2022/03/07 05:53:25;;;;;;;5.90;4.32;;;;;;;;;;20920137;28;20603;-55
2022/03/07 06:03:31;;;;;;;9.32;4.97;;;;;;;;;;20920166;28;20072;-56
2022/03/07 06:13:35;;;;;;;7.85;5.43;;;;;;;;;;20918698;28;20545;-53
2022/03/07 06:23:37;;;;;;;6.15;5.10;;;;;;;;;;20917262;28;20065;-51
2022/03/07 06:33:39;;;;;;;7.00;5.50;;;;;;;;;;20916385;28;20076;-52
2022/03/07 06:43:41;;;;;;;6.10;5.30;;;;;;;;;;20916009;28;20517;-55
2022/03/07 06:53:43;;;;;;;9.77;6.22;;;;;;;;;;20916454;28;20049;-53
2022/03/07 07:03:45;;;;;;;8.90;5.90;;;;;;;;;;20914550;28;20053;-52
2022/03/07 07:13:47;;;;;;;11.25;7.65;;;;;;;;;;20913352;28;20114;-52
2022/03/07 07:23:50;;;;;;;8.23;6.95;;;;;;;;;;20913381;28;20064;-53
2022/03/07 07:33:52;;;;;;;8.18;6.90;;;;;;;;;;20911784;28;20059;-53
2022/03/07 07:43:55;;;;;;;7.68;6.40;;;;;;;;;;20911254;28;20053;-53
2022/03/07 07:54:00;;;;;;;8.52;7.43;;;;;;;;;;20911265;28;20135;-53
2022/03/07 08:04:03;;;;;;;11.80;6.85;;;;;;;;;;20910977;28;20045;-54
2022/03/07 08:14:07;;;;;;;10.98;7.80;;;;;;;;;;20911127;28;20124;-54
2022/03/07 08:24:10;;;;;;;8.25;7.15;;;;;;;;;;20910411;28;20060;-52
2022/03/07 08:34:13;;;;;;;11.07;7.10;;;;;;;;;;20910937;28;20231;-54
2022/03/07 08:44:15;;;;;;;8.13;6.93;;;;;;;;;;20910789;28;20049;-53
2022/03/07 08:54:17;;;;;;;10.50;7.85;;;;;;;;;;20912356;28;20049;-57
2022/03/07 09:04:20;;;;;;;7.13;4.95;;;;;;;;;;20923928;28;20087;-55
2022/03/07 09:14:23;;;;;;;12.45;7.38;;;;;;;;;;20920455;28;20124;-57
2022/03/07 09:24:25;;;;;;;9.75;6.55;;;;;;;;;;20919457;28;20059;-55
2022/03/07 09:34:27;;;;;;;9.40;7.28;;;;;;;;;;20920124;28;20405;-54
2022/03/07 09:44:30;;;;;;;10.65;8.07;;;;;;;;;;20920918;28;20111;-56
2022/03/07 09:54:33;;;;;;;9.98;6.78;;;;;;;;;;20935443;28;20045;-55
2022/03/07 10:04:40;;;;;;;9.32;6.70;;;;;;;;;;20917852;28;20052;-59
2022/03/07 10:14:45;;;;;;;9.63;6.30;;;;;;;;;;20915081;28;20049;-65
2022/03/07 10:24:48;;;;;;;9.57;6.97;;;;;;;;;;20881666;28;20446;-63
2022/03/07 10:34:50;;;;;;;6.78;5.40;;;;;;;;;;20867951;28;20452;-58
2022/03/07 10:45:01;;;;;;;8.95;6.22;;;;;;;;;;20909581;28;20408;-63
2022/03/07 10:55:05;;;;;;;11.23;7.95;;;;;;;;;;20887695;28;20041;-61
2022/03/07 11:05:09;;;;;;;11.97;9.07;;;;;;;;;;20908177;28;20053;-61
2022/03/07 11:15:14;;;;;;;10.05;8.63;;;;;;;;;;20903701;28;20136;-61
2022/03/07 11:25:18;;;;;;;4.35;3.72;;;;;;;;;;20902736;28;20045;-62
2022/03/07 11:35:31;;;;;;;10.05;9.00;;;;;;;;;;20910094;28;20219;-59
2022/03/07 11:45:38;;;;;;;11.55;6.78;;;;;;;;;;20907619;28;20118;-56
2022/03/07 11:55:47;;;;;;;9.73;8.27;;;;;;;;;;20901870;28;20053;-58
2022/03/07 12:06:00;;;;;;;11.25;9.32;;;;;;;;;;20898395;28;20041;-59
2022/03/07 12:16:03;;;;;;;9.60;6.57;;;;;;;;;;20896122;28;20037;-58
2022/03/07 12:26:09;;;;;;;9.60;5.80;;;;;;;;;;20893806;28;20047;-59
2022/03/07 12:36:14;;;;;;;6.00;5.22;;;;;;;;;;20923859;28;20056;-61
2022/03/07 12:46:16;;;;;;;9.27;6.03;;;;;;;;;;20923842;28;20045;-58
2022/03/07 12:56:19;;;;;;;5.72;4.57;;;;;;;;;;20917777;28;20473;-57
2022/03/07 13:06:26;;;;;;;5.38;4.15;;;;;;;;;;20920240;28;20400;-56
2022/03/07 13:16:30;;;;;;;6.75;4.47;;;;;;;;;;20922893;28;20049;-59
2022/03/07 13:26:33;;;;;;;4.50;4.10;;;;;;;;;;20921747;28;20081;-59
2022/03/07 13:36:39;;;;;;;6.65;5.00;;;;;;;;;;20920092;28;20041;-58
2022/03/07 13:46:57;;;;;;;4.82;3.70;;;;;;;;;;20919081;28;20052;-59
2022/03/07 13:57:04;;;;;;;5.75;3.70;;;;;;;;;;20920339;28;20052;-58
2022/03/07 14:07:06;;;;;;;4.65;3.35;;;;;;;;;;20918992;28;20063;-58
2022/03/07 14:17:16;;;;;;;5.82;3.60;;;;;;;;;;20918737;28;20057;-57
2022/03/07 14:27:18;;;;;;;5.50;4.18;;;;;;;;;;20917597;28;20049;-59
2022/03/07 14:37:20;;;;;;;5.53;4.07;;;;;;;;;;20917125;28;20049;-59
2022/03/07 14:47:22;;;;;;;6.75;4.13;;;;;;;;;;20916279;28;20444;-59
2022/03/07 14:57:24;;;;;;;5.30;3.88;;;;;;;;;;20915372;28;20052;-57
2022/03/07 15:07:27;;;;;;;8.43;4.85;;;;;;;;;;20914772;28;20045;-59
2022/03/07 15:17:46;;;;;;;8.73;4.28;;;;;;;;;;20913839;28;20102;-59
2022/03/07 15:27:56;;;;;;;6.25;3.65;;;;;;;;;;20913005;28;20185;-58
2022/03/07 15:37:57;;;;;;;8.30;4.60;;;;;;;;;;20913973;28;20547;-57
2022/03/07 15:48:01;;;;;;;6.10;3.60;;;;;;;;;;20912480;28;20056;-58
2022/03/07 15:58:04;;;;;;;5.82;4.10;;;;;;;;;;20912839;28;20500;-57
2022/03/07 16:08:07;;;;;;;9.23;4.00;;;;;;;;;;20922594;28;20041;-60
2022/03/07 16:18:10;;;;;;;4.45;3.20;;;;;;;;;;20926787;28;20136;-58
2022/03/07 16:28:12;;;;;;;3.80;2.95;;;;;;;;;;20926457;28;20057;-66
2022/03/07 16:38:15;;;;;;;5.70;3.97;;;;;;;;;;20924037;28;20052;-57
2022/03/07 16:48:17;;;;;;;4.80;3.22;;;;;;;;;;20924656;28;20377;-59
2022/03/07 16:58:19;;;;;;;5.57;3.17;;;;;;;;;;20925231;28;20049;-57
2022/03/07 17:08:21;;;;;;;6.35;3.20;;;;;;;;;;20924460;28;20059;-57
2022/03/07 17:18:24;;;;;;;3.15;2.42;;;;;;;;;;20920979;28;20489;-58
2022/03/07 17:28:26;;;;;;;4.45;2.80;;;;;;;;;;20922357;28;20401;-61
2022/03/07 17:38:28;;;;;;;4.80;2.83;;;;;;;;;;20876482;28;20045;-64
2022/03/07 17:48:29;;;;;;;5.85;2.80;;;;;;;;;;20891856;28;20041;-57
2022/03/07 17:58:31;;;;;;;5.10;3.20;;;;;;;;;;20918814;28;20492;-60
2022/03/07 18:08:33;;;;;;;4.47;3.15;;;;;;;;;;20910480;28;20069;-59
2022/03/07 18:18:35;;;;;;;4.85;3.63;;;;;;;;;;20913378;28;20041;-68
2022/03/07 18:28:37;;;;;;;6.57;3.38;;;;;;;;;;20910493;28;20481;-55
2022/03/07 18:38:38;;;;;;;4.72;3.83;;;;;;;;;;20849637;28;20060;-65
2022/03/07 18:48:40;;;;;;;5.28;3.60;;;;;;;;;;20857576;28;20111;-57
2022/03/07 18:58:42;;;;;;;5.53;3.10;;;;;;;;;;20901093;28;20053;-54
2022/03/07 19:08:44;;;;;;;5.50;3.03;;;;;;;;;;20909336;28;20083;-59
2022/03/07 19:18:46;;;;;;;4.97;2.65;;;;;;;;;;20912981;28;20048;-60
2022/03/07 19:28:47;;;;;;;8.70;6.53;;;;;;;;;;20913381;28;21537;-58
2022/03/07 19:38:51;;;;;;;5.53;3.40;;;;;;;;;;20906548;28;20127;-60
2022/03/07 19:48:53;;;;;;;5.47;3.50;;;;;;;;;;20912135;28;20041;-61
2022/03/07 19:58:55;;;;;;;6.25;4.05;;;;;;;;;;20911186;28;20044;-61
2022/03/07 20:08:57;;;;;;;6.03;4.57;;;;;;;;;;20913653;28;20060;-59
2022/03/07 20:18:59;;;;;;;4.65;3.60;;;;;;;;;;20911233;28;20060;-58
2022/03/07 20:29:01;;;;;;;6.82;5.20;;;;;;;;;;20911553;28;20045;-60
2022/03/07 20:39:04;;;;;;;5.25;3.95;;;;;;;;;;20910418;28;20135;-58
2022/03/07 20:49:05;;;;;;;3.03;2.45;;;;;;;;;;20913777;28;20049;-59
2022/03/07 20:59:07;;;;;;;4.53;2.92;;;;;;;;;;20925959;28;20051;-58
2022/03/07 21:09:09;;;;;;;5.18;2.72;;;;;;;;;;20923964;28;20175;-60
2022/03/07 21:19:13;;;;;;;5.75;3.20;;;;;;;;;;20922775;28;20053;-59
2022/03/07 21:29:14;;;;;;;4.40;2.58;;;;;;;;;;20922378;28;20052;-58
2022/03/07 21:39:16;;;;;;;6.57;3.13;;;;;;;;;;20923023;28;20140;-59
2022/03/07 21:49:18;;;;;;;3.55;2.65;;;;;;;;;;20920430;28;20417;-59
2022/03/07 21:59:19;;;;;;;3.30;2.30;;;;;;;;;;20919521;28;20136;-59
2022/03/07 22:09:22;;;;;;;7.60;2.00;;;;;;;;;;20920320;28;20053;-62
2022/03/07 22:19:23;;;;;;;4.30;2.15;;;;;;;;;;20918870;28;20067;-59
2022/03/07 22:29:26;;;;;;;3.00;2.00;;;;;;;;;;20917596;28;20410;-60
2022/03/07 22:39:28;;;;;;;3.42;2.15;;;;;;;;;;20916936;28;20047;-61
2022/03/07 22:49:30;;;;;;;2.45;1.80;;;;;;;;;;20917470;28;20049;-59
2022/03/07 22:59:32;;;;;;;2.78;1.73;;;;;;;;;;20915083;28;20125;-59
2022/03/07 23:09:34;;;;;;;2.72;1.55;;;;;;;;;;20914762;28;20045;-60
2022/03/07 23:19:36;;;;;;;5.13;1.85;;;;;;;;;;20913167;28;20057;-60
2022/03/07 23:29:38;;;;;;;3.17;2.05;;;;;;;;;;20913061;28;20049;-59
2022/03/07 23:39:39;;;;;;;5.70;2.53;;;;;;;;;;20912531;28;20044;-61
2022/03/07 23:49:41;;;;;;;5.22;2.53;;;;;;;;;;20912612;28;20099;-60
2022/03/07 23:59:43;;;;;;;3.50;2.67;;;;;;;;;;20911803;28;20139;-61
